sim
Sign-in with your pilot id or email,
or register
Callsign
Passwort

Schedule Details

Flight Number: DLH2127
Departure: Dresden Airport (EDDC) at 16:00
Arrival: Munich Airport (EDDM) at 16:55
Route: Lufthansa Passenger Schedule. Enter filed route here before submitting Pirep.

Weather Information
Getting current METAR information for EDDC 260820Z 30012KT 280V340 3500 RA BKN006 08/08 Q0995 TEMPO 2500 RA BKN004
Getting current METAR information for EDDM 260820Z 27015KT 9999 SCT019 BKN028 08/05 Q1000 TEMPO 26015G25KT

Schedule Frequency

Route Map